Time;durP1;ratioP1;P1;durP2;ratioP2;P2;SDS_P1;SDS_P2;PMS_P1;PMS_P2;Temp;Humidity;BMP_temperature;BMP_pressure;BME280_temperature;BME280_humidity;BME280_pressure;Samples;Min_cycle;Max_cycle;Signal;HPM_P1;HPM_P2
2022/01/07 00:01:28;;;;;;;;;;;;;;;-2.23;78.60;100964.09;5594286;31;34040;-82
2022/01/07 00:04:36;;;;;;;;;;;;;;;-2.14;78.22;100970.78;5594745;31;34352;-82
2022/01/07 00:07:39;;;;;;;;;;;;;;;-2.24;78.93;100965.00;5594868;31;34153;-82
2022/01/07 00:10:41;;;;;;;;;;;;;;;-2.22;77.78;100973.59;5594256;31;34109;-82
2022/01/07 00:13:44;;;;;;;;;;;;;;;-2.20;78.32;100983.91;5595946;31;33805;-82
2022/01/07 00:16:47;;;;;;;;;;;;;;;-2.18;77.71;100980.38;5595706;31;34160;-82
2022/01/07 00:19:50;;;;;;;;;;;;;;;-2.27;78.20;100993.59;5594787;31;33777;-82
2022/01/07 00:22:53;;;;;;;;;;;;;;;-2.23;77.73;100995.22;5593538;31;33634;-82
2022/01/07 00:25:55;;;;;;;;;;;;;;;-2.38;78.34;100995.63;5595199;31;33826;-82
2022/01/07 00:29:01;;;;;;;;;;;;;;;-2.47;79.46;100993.28;5594122;31;33986;-82
2022/01/07 00:32:03;;;;;;;;;;;;;;;-2.43;80.38;101006.13;5593896;31;34873;-82
2022/01/07 00:35:10;;;;;;;;;;;;;;;-2.55;80.84;101017.66;5597260;31;34356;-82
2022/01/07 00:38:12;;;;;;;;;;;;;;;-2.36;79.81;101024.94;5597137;31;34702;-82
2022/01/07 00:41:17;;;;;;;;;;;;;;;-2.39;79.73;101022.44;5597267;31;33613;-82
2022/01/07 00:44:19;;;;;;;;;;;;;;;-2.51;81.50;101014.09;5602287;31;34964;-82
2022/01/07 00:47:22;;;;;;;;;;;;;;;-2.49;81.20;101014.91;5596929;31;34073;-82
2022/01/07 00:50:26;;;;;;;;;;;;;;;-2.57;81.77;101023.75;5601828;31;33734;-82
2022/01/07 00:53:28;;;;;;;;;;;;;;;-2.43;81.23;101026.00;5607930;31;34457;-81
2022/01/07 00:56:31;;;;;;;;;;;;;;;-2.39;81.44;101043.16;5597990;31;34995;-81
2022/01/07 00:59:33;;;;;;;;;;;;;;;-2.55;82.59;101028.03;5596828;31;33769;-81
2022/01/07 01:02:37;;;;;;;;;;;;;;;-2.64;83.52;101028.25;5596670;31;33403;-81
2022/01/07 01:05:42;;;;;;;;;;;;;;;-2.74;84.52;101025.03;5596237;31;34514;-81
2022/01/07 01:08:45;;;;;;;;;;;;;;;-2.80;84.93;101015.69;5597604;31;34411;-82
2022/01/07 01:11:50;;;;;;;;;;;;;;;-2.91;86.12;101014.22;5596285;31;34355;-82
2022/01/07 01:15:00;;;;;;;;;;;;;;;-2.96;86.41;101019.53;5570826;31;824858;-82
2022/01/07 01:18:05;;;;;;;;;;;;;;;-2.87;86.05;101021.88;5597308;31;33703;-81
2022/01/07 01:21:08;;;;;;;;;;;;;;;-2.91;86.28;101020.28;5597665;31;33941;-81
2022/01/07 01:24:11;;;;;;;;;;;;;;;-3.01;87.32;101003.28;5597298;31;34864;-81
2022/01/07 01:27:13;;;;;;;;;;;;;;;-3.07;87.93;101003.41;5599387;31;33740;-81
2022/01/07 01:30:17;;;;;;;;;;;;;;;-3.10;87.79;101000.00;5596777;31;33410;-81
2022/01/07 01:33:20;;;;;;;;;;;;;;;-3.03;87.40;100990.34;5596274;31;33669;-81
2022/01/07 01:36:25;;;;;;;;;;;;;;;-3.00;87.12;100986.84;5596982;31;34259;-81
2022/01/07 01:39:28;;;;;;;;;;;;;;;-2.97;87.51;100984.16;5596429;31;34619;-81
2022/01/07 01:42:30;;;;;;;;;;;;;;;-3.07;88.29;100982.69;5595950;31;34089;-82
2022/01/07 01:45:33;;;;;;;;;;;;;;;-3.10;88.16;100989.63;5595549;31;34072;-81
2022/01/07 01:48:36;;;;;;;;;;;;;;;-3.14;88.29;100998.38;5595813;31;33866;-81
2022/01/07 01:51:38;;;;;;;;;;;;;;;-3.04;87.85;101000.75;5596399;31;31994;-81
2022/01/07 01:54:43;;;;;;;;;;;;;;;-3.15;88.18;100996.69;5595578;31;33858;-81
2022/01/07 01:57:46;;;;;;;;;;;;;;;-3.27;88.97;101009.91;5594940;31;34406;-81
2022/01/07 02:00:49;;;;;;;;;;;;;;;-3.30;90.03;101028.06;5595565;31;34458;-81
2022/01/07 02:03:54;;;;;;;;;;;;;;;-3.23;88.71;101027.06;5595767;31;33764;-81
2022/01/07 02:06:59;;;;;;;;;;;;;;;-3.40;91.25;101022.28;5596525;31;33947;-81
2022/01/07 02:10:06;;;;;;;;;;;;;;;-3.37;90.00;101016.19;5596466;31;33808;-81
2022/01/07 02:13:10;;;;;;;;;;;;;;;-3.45;90.50;101024.09;5596039;31;34911;-81
2022/01/07 02:16:13;;;;;;;;;;;;;;;-3.51;90.80;101035.44;5595298;31;34041;-81
2022/01/07 02:19:15;;;;;;;;;;;;;;;-3.60;91.63;101031.31;5600398;31;34101;-82
2022/01/07 02:22:25;;;;;;;;;;;;;;;-3.47;90.61;101038.81;5597111;31;33613;-82
2022/01/07 02:25:30;;;;;;;;;;;;;;;-3.68;91.42;101034.97;5602233;31;34272;-82
2022/01/07 02:28:33;;;;;;;;;;;;;;;-3.62;91.06;101042.56;5598760;31;34900;-82
2022/01/07 02:31:36;;;;;;;;;;;;;;;-3.77;91.30;101038.56;5596335;31;33999;-82
2022/01/07 02:34:40;;;;;;;;;;;;;;;-3.80;91.22;101044.66;5597694;31;33880;-83
2022/01/07 02:37:43;;;;;;;;;;;;;;;-3.84;92.50;101040.44;5595651;31;34162;-82
2022/01/07 02:40:45;;;;;;;;;;;;;;;-3.76;90.41;101046.28;5595479;31;34378;-82
2022/01/07 02:43:48;;;;;;;;;;;;;;;-3.80;90.39;101049.84;5594226;31;34747;-82
2022/01/07 02:46:52;;;;;;;;;;;;;;;-3.83;90.98;101039.56;5595293;31;33827;-82
2022/01/07 02:49:55;;;;;;;;;;;;;;;-3.99;90.87;101039.00;5595683;31;33788;-82
2022/01/07 02:52:57;;;;;;;;;;;;;;;-4.04;91.39;101039.09;5596650;31;34958;-83
2022/01/07 02:56:00;;;;;;;;;;;;;;;-3.97;89.88;101051.88;5594651;31;34424;-82
2022/01/07 02:59:10;;;;;;;;;;;;;;;-4.04;90.57;101053.75;5596267;31;34518;-82
2022/01/07 03:02:15;;;;;;;;;;;;;;;-4.05;89.73;101037.41;5595932;31;33693;-82
2022/01/07 03:05:18;;;;;;;;;;;;;;;-4.18;90.88;101048.84;5596083;31;34031;-82
2022/01/07 03:08:21;;;;;;;;;;;;;;;-4.28;91.37;101058.50;5594938;31;34468;-81
2022/01/07 03:11:24;;;;;;;;;;;;;;;-4.26;90.63;101050.72;5594780;31;33754;-81
2022/01/07 03:14:27;;;;;;;;;;;;;;;-4.19;90.37;101052.31;5594944;31;34054;-81
2022/01/07 03:17:31;;;;;;;;;;;;;;;-4.23;91.61;101061.00;5596700;31;33860;-81
2022/01/07 03:20:38;;;;;;;;;;;;;;;-4.30;91.50;101059.41;5596903;31;33309;-81
2022/01/07 03:23:41;;;;;;;;;;;;;;;-4.31;91.16;101063.72;5596365;31;33568;-81
2022/01/07 03:26:44;;;;;;;;;;;;;;;-4.26;90.47;101063.63;5595554;31;33637;-81
2022/01/07 03:29:47;;;;;;;;;;;;;;;-4.30;90.69;101074.91;5595120;31;33252;-81
2022/01/07 03:32:49;;;;;;;;;;;;;;;-4.31;91.14;101068.03;5595168;31;33780;-81
2022/01/07 03:35:54;;;;;;;;;;;;;;;-4.33;91.12;101067.22;5595533;31;34633;-81
2022/01/07 03:39:01;;;;;;;;;;;;;;;-4.21;90.34;101074.72;5596141;31;34870;-83
2022/01/07 03:42:04;;;;;;;;;;;;;;;-4.27;90.61;101085.19;5595799;31;33728;-82
2022/01/07 03:45:10;;;;;;;;;;;;;;;-4.35;92.04;101083.59;5598759;31;33990;-82
2022/01/07 03:48:21;;;;;;;;;;;;;;;-4.27;91.06;101078.28;5595537;31;34199;-82
2022/01/07 03:51:23;;;;;;;;;;;;;;;-4.11;90.40;101080.59;5595158;31;33905;-82
2022/01/07 03:54:28;;;;;;;;;;;;;;;-4.19;91.83;101089.34;5596279;31;34392;-82
2022/01/07 03:57:31;;;;;;;;;;;;;;;-4.31;93.16;101091.28;5597642;31;34465;-82
2022/01/07 04:00:36;;;;;;;;;;;;;;;-4.33;92.39;101080.97;5596449;31;33669;-82
2022/01/07 04:03:41;;;;;;;;;;;;;;;-4.29;91.62;101089.53;5598573;31;34793;-83
2022/01/07 04:06:43;;;;;;;;;;;;;;;-4.30;91.37;101090.41;5595090;31;33334;-82
2022/01/07 04:09:46;;;;;;;;;;;;;;;-4.41;92.18;101088.84;5595734;31;34093;-82
2022/01/07 04:12:48;;;;;;;;;;;;;;;-4.56;93.65;101095.13;5597010;31;34013;-82
2022/01/07 04:15:51;;;;;;;;;;;;;;;-4.63;94.90;101093.53;5596614;31;33549;-82
2022/01/07 04:18:56;;;;;;;;;;;;;;;-4.74;95.59;101093.69;5597385;31;34176;-83
2022/01/07 04:21:59;;;;;;;;;;;;;;;-4.87;95.97;101089.59;5597215;31;34206;-82
2022/01/07 04:25:06;;;;;;;;;;;;;;;-4.92;95.90;101091.41;5596716;31;34007;-82
2022/01/07 04:28:09;;;;;;;;;;;;;;;-4.92;95.85;101096.56;5596716;31;34028;-82
2022/01/07 04:31:11;;;;;;;;;;;;;;;-4.73;94.68;101094.56;5599659;31;33872;-82
2022/01/07 04:34:14;;;;;;;;;;;;;;;-4.72;94.37;101099.69;5606777;31;33927;-82
2022/01/07 04:37:19;;;;;;;;;;;;;;;-4.77;93.95;101095.47;5602372;31;34461;-83
2022/01/07 04:40:32;;;;;;;;;;;;;;;-4.81;93.67;101087.78;5597464;31;34333;-82
2022/01/07 04:43:34;;;;;;;;;;;;;;;-4.84;93.73;101090.41;5597858;31;33991;-82
2022/01/07 04:46:37;;;;;;;;;;;;;;;-4.57;92.32;101102.91;5597610;31;33889;-82
2022/01/07 04:49:39;;;;;;;;;;;;;;;-4.47;91.53;101104.47;5599268;31;34029;-83
2022/01/07 04:52:44;;;;;;;;;;;;;;;-4.15;88.67;101105.66;5604912;31;34803;-82
2022/01/07 04:55:47;;;;;;;;;;;;;;;-4.15;88.74;101115.13;5603446;31;34155;-82
2022/01/07 04:58:50;;;;;;;;;;;;;;;-4.31;89.12;101109.38;5598361;31;33341;-82
2022/01/07 05:01:54;;;;;;;;;;;;;;;-4.43;90.17;101111.28;5596640;31;33815;-82
2022/01/07 05:04:57;;;;;;;;;;;;;;;-4.56;91.15;101102.03;5596030;31;33624;-82
2022/01/07 05:07:59;;;;;;;;;;;;;;;-4.33;90.64;101106.81;5596001;31;33471;-82
2022/01/07 05:11:02;;;;;;;;;;;;;;;-4.30;90.39;101111.06;5596314;31;34414;-82
2022/01/07 05:14:04;;;;;;;;;;;;;;;-4.35;90.05;101109.44;5596024;31;34785;-82
2022/01/07 05:17:09;;;;;;;;;;;;;;;-4.54;93.14;101108.00;5596309;31;34023;-83
2022/01/07 05:20:14;;;;;;;;;;;;;;;-4.65;93.68;101111.63;5594992;31;33915;-83
2022/01/07 05:23:16;;;;;;;;;;;;;;;-4.69;93.43;101110.00;5593522;31;34208;-83
2022/01/07 05:26:19;;;;;;;;;;;;;;;-4.78;95.99;101111.84;5596150;31;34283;-82
2022/01/07 05:29:22;;;;;;;;;;;;;;;-4.79;94.85;101123.03;5595782;31;34126;-82
2022/01/07 05:32:24;;;;;;;;;;;;;;;-4.90;95.10;101120.63;5597272;31;33693;-82
2022/01/07 05:35:30;;;;;;;;;;;;;;;-4.97;97.01;101119.88;5596942;31;33818;-84
2022/01/07 05:38:32;;;;;;;;;;;;;;;-5.06;98.31;101120.84;5597086;31;33872;-83
2022/01/07 05:41:38;;;;;;;;;;;;;;;-5.13;98.48;101114.91;5596466;31;32467;-82
2022/01/07 05:44:41;;;;;;;;;;;;;;;-5.24;100.00;101127.09;5596465;31;33555;-83
2022/01/07 05:47:44;;;;;;;;;;;;;;;-5.19;100.00;101129.63;5596915;31;33758;-82
2022/01/07 05:50:46;;;;;;;;;;;;;;;-5.18;100.00;101127.00;5596140;31;34297;-82
2022/01/07 05:53:49;;;;;;;;;;;;;;;-5.25;100.00;101129.72;5595582;31;33677;-82
2022/01/07 05:56:51;;;;;;;;;;;;;;;-5.09;100.00;101120.88;5597382;31;33864;-83
2022/01/07 05:59:54;;;;;;;;;;;;;;;-5.09;100.00;101138.94;5596376;31;33541;-83
2022/01/07 06:02:59;;;;;;;;;;;;;;;-5.18;100.00;101139.06;5595789;31;33643;-82
2022/01/07 06:06:02;;;;;;;;;;;;;;;-5.25;100.00;101132.28;5598531;31;33609;-84
2022/01/07 06:09:10;;;;;;;;;;;;;;;-5.34;100.00;101147.00;5595449;31;34054;-83
2022/01/07 06:12:13;;;;;;;;;;;;;;;-5.31;100.00;101139.22;5595725;31;33950;-84
2022/01/07 06:15:15;;;;;;;;;;;;;;;-5.46;100.00;101144.59;5595427;31;34323;-84
2022/01/07 06:18:18;;;;;;;;;;;;;;;-5.36;100.00;101141.03;5596863;31;33700;-83
2022/01/07 06:21:21;;;;;;;;;;;;;;;-5.46;100.00;101144.59;5597108;31;34166;-83
2022/01/07 06:24:24;;;;;;;;;;;;;;;-5.49;100.00;101153.19;5596941;31;34609;-84
2022/01/07 06:27:28;;;;;;;;;;;;;;;-5.62;100.00;101151.63;5595356;31;33483;-83
2022/01/07 06:30:31;;;;;;;;;;;;;;;-5.64;100.00;101159.37;5595825;31;33395;-84
2022/01/07 06:33:33;;;;;;;;;;;;;;;-5.68;100.00;101162.84;5595194;31;34159;-84
2022/01/07 06:36:36;;;;;;;;;;;;;;;-5.81;100.00;101166.47;5597148;31;34289;-83
2022/01/07 06:39:39;;;;;;;;;;;;;;;-5.85;100.00;101162.19;5594793;31;34350;-83
2022/01/07 06:42:42;;;;;;;;;;;;;;;-5.83;100.00;101168.19;5593808;31;33769;-82
2022/01/07 06:45:47;;;;;;;;;;;;;;;-5.82;100.00;101175.06;5594946;31;34372;-82
2022/01/07 06:48:50;;;;;;;;;;;;;;;-5.74;100.00;101170.66;5595273;31;33415;-83
2022/01/07 06:51:53;;;;;;;;;;;;;;;-5.76;100.00;101181.00;5594190;31;33553;-83
2022/01/07 06:54:57;;;;;;;;;;;;;;;-5.65;100.00;101175.72;5595376;31;33670;-82
2022/01/07 06:57:59;;;;;;;;;;;;;;;-5.67;100.00;101180.03;5596453;31;33869;-82
2022/01/07 07:01:06;;;;;;;;;;;;;;;-5.63;100.00;101188.63;5596695;31;33751;-82
2022/01/07 07:04:09;;;;;;;;;;;;;;;-5.51;100.00;101182.47;5598268;31;33228;-82
2022/01/07 07:07:12;;;;;;;;;;;;;;;-5.51;100.00;101185.87;5598247;31;34426;-82
2022/01/07 07:10:14;;;;;;;;;;;;;;;-5.46;100.00;101185.84;5596209;31;34001;-82
2022/01/07 07:13:21;;;;;;;;;;;;;;;-5.50;100.00;101186.75;5598392;31;34101;-81
2022/01/07 07:16:23;;;;;;;;;;;;;;;-5.40;100.00;101188.34;5595495;31;34310;-82
2022/01/07 07:19:26;;;;;;;;;;;;;;;-5.37;100.00;101193.47;5595545;31;34334;-84
2022/01/07 07:22:29;;;;;;;;;;;;;;;-5.41;100.00;101191.81;5596967;31;33982;-82
2022/01/07 07:25:35;;;;;;;;;;;;;;;-5.36;100.00;101200.34;5600122;31;34360;-82
2022/01/07 07:28:38;;;;;;;;;;;;;;;-5.36;100.00;101190.03;5595241;31;33966;-84
2022/01/07 07:31:47;;;;;;;;;;;;;;;-5.20;100.00;101189.84;5595202;31;33878;-83
2022/01/07 07:34:59;;;;;;;;;;;;;;;-5.15;100.00;101188.91;5595190;31;34069;-82
2022/01/07 07:38:02;;;;;;;;;;;;;;;-5.13;100.00;101202.66;5596273;31;33926;-82
2022/01/07 07:41:10;;;;;;;;;;;;;;;-5.08;100.00;101194.84;5595176;31;33989;-82
2022/01/07 07:44:12;;;;;;;;;;;;;;;-4.98;100.00;101198.19;5594653;31;33987;-82
2022/01/07 07:47:15;;;;;;;;;;;;;;;-4.91;100.00;101191.22;5594578;31;33780;-85
2022/01/07 07:50:18;;;;;;;;;;;;;;;-4.92;100.00;101194.66;5595203;31;34096;-84
2022/01/07 07:53:20;;;;;;;;;;;;;;;-4.76;100.00;101196.16;5582450;31;34348;-82
2022/01/07 07:56:25;;;;;;;;;;;;;;;-4.71;100.00;101199.53;5594978;31;33728;-84
2022/01/07 07:59:28;;;;;;;;;;;;;;;-4.65;100.00;101209.75;5595476;31;34252;-84
2022/01/07 08:02:31;;;;;;;;;;;;;;;-4.48;100.00;101210.37;5594538;31;33502;-83
2022/01/07 08:05:34;;;;;;;;;;;;;;;-4.46;100.00;101209.50;5595248;31;34007;-83
2022/01/07 08:08:37;;;;;;;;;;;;;;;-4.27;100.00;101201.47;5594793;31;33815;-83
2022/01/07 08:11:51;;;;;;;;;;;;;;;-4.12;100.00;101209.00;5594506;31;33577;-83
2022/01/07 08:18:14;;;;;;;;;;;;;;;-4.15;100.00;101206.44;5594665;31;33875;-83
2022/01/07 08:21:21;;;;;;;;;;;;;;;-4.04;100.00;101212.28;5593981;31;33392;-83
2022/01/07 08:24:24;;;;;;;;;;;;;;;-3.99;100.00;101219.09;5597115;31;34578;-83
2022/01/07 08:27:27;;;;;;;;;;;;;;;-3.97;100.00;101223.37;5595017;31;33899;-83
2022/01/07 08:30:59;;;;;;;;;;;;;;;-3.74;100.00;101225.56;5594101;31;33854;-83
2022/01/07 08:37:24;;;;;;;;;;;;;;;-3.56;99.78;101220.97;5592647;31;33785;-83
2022/01/07 08:40:26;;;;;;;;;;;;;;;-3.54;99.33;101221.75;5593374;31;33814;-83
2022/01/07 08:43:37;;;;;;;;;;;;;;;-3.61;100.00;101218.47;5593853;31;34213;-83
2022/01/07 08:46:42;;;;;;;;;;;;;;;-3.63;99.96;101221.94;5593244;31;34281;-83
2022/01/07 08:49:45;;;;;;;;;;;;;;;-3.37;98.01;101228.38;5593151;31;34245;-83
2022/01/07 08:52:50;;;;;;;;;;;;;;;-3.46;98.31;101219.91;5593025;31;33372;-82
2022/01/07 08:55:52;;;;;;;;;;;;;;;-3.14;96.85;101233.94;5594599;31;34420;-82
2022/01/07 08:58:55;;;;;;;;;;;;;;;-2.98;94.45;101228.44;5596495;31;33820;-84
2022/01/07 09:02:01;;;;;;;;;;;;;;;-3.08;93.54;101224.34;5594857;31;34076;-83
2022/01/07 09:05:06;;;;;;;;;;;;;;;-2.87;91.96;101230.81;5594957;31;34076;-82
2022/01/07 09:08:12;;;;;;;;;;;;;;;-2.83;91.10;101217.78;5594930;31;34181;-82
2022/01/07 09:11:18;;;;;;;;;;;;;;;-2.88;91.19;101216.16;5595050;31;34087;-82
2022/01/07 09:14:20;;;;;;;;;;;;;;;-2.87;90.12;101216.13;5594791;31;33957;-82
2022/01/07 09:17:26;;;;;;;;;;;;;;;-2.78;89.45;101211.66;5596156;31;34450;-82
2022/01/07 09:20:32;;;;;;;;;;;;;;;-2.64;90.46;101199.22;5595889;31;33995;-82
2022/01/07 09:23:39;;;;;;;;;;;;;;;-2.52;91.19;101198.94;5597623;31;33783;-82
2022/01/07 09:26:42;;;;;;;;;;;;;;;-2.37;90.71;101205.53;5596292;31;34044;-82
2022/01/07 09:29:46;;;;;;;;;;;;;;;-2.30;90.98;101188.06;5596473;31;34175;-83
2022/01/07 09:32:48;;;;;;;;;;;;;;;-2.16;87.95;101190.34;5598353;31;34103;-82
2022/01/07 09:35:53;;;;;;;;;;;;;;;-1.98;83.80;101194.22;5597965;31;33780;-82
2022/01/07 09:38:59;;;;;;;;;;;;;;;-1.90;83.12;101181.91;5597589;31;33749;-82
2022/01/07 09:42:01;;;;;;;;;;;;;;;-1.73;78.80;101184.06;5596435;31;33999;-82
2022/01/07 09:45:04;;;;;;;;;;;;;;;-1.63;78.42;101184.66;5596428;31;34122;-82
2022/01/07 09:48:08;;;;;;;;;;;;;;;-1.41;75.88;101173.72;5597033;31;33545;-82
2022/01/07 09:51:14;;;;;;;;;;;;;;;-1.31;74.93;101169.97;5596636;31;33278;-82
2022/01/07 09:54:17;;;;;;;;;;;;;;;-1.18;73.23;101167.00;5596396;31;35072;-82
2022/01/07 09:57:20;;;;;;;;;;;;;;;-1.15;73.68;101159.97;5601797;31;34880;-82
2022/01/07 10:00:23;;;;;;;;;;;;;;;-1.00;72.43;101156.06;5598455;31;33889;-83
2022/01/07 10:03:25;;;;;;;;;;;;;;;-0.86;70.91;101158.25;5596403;31;34539;-83
2022/01/07 10:06:28;;;;;;;;;;;;;;;-0.74;67.87;101154.44;5594060;31;34230;-82
2022/01/07 10:09:30;;;;;;;;;;;;;;;-0.66;68.29;101151.56;5596121;31;34041;-83
2022/01/07 10:12:55;;;;;;;;;;;;;;;-0.54;68.17;101150.34;5595966;31;33778;-82
2022/01/07 10:16:11;;;;;;;;;;;;;;;-0.51;68.24;101147.66;5595688;31;33632;-82
2022/01/07 10:19:34;;;;;;;;;;;;;;;-0.35;68.55;101151.44;5597222;31;33575;-82
2022/01/07 10:22:58;;;;;;;;;;;;;;;-0.26;67.52;101145.09;5597698;31;33904;-83
2022/01/07 10:26:00;;;;;;;;;;;;;;;-0.21;67.15;101142.34;5595889;31;34220;-82
2022/01/07 10:29:23;;;;;;;;;;;;;;;-0.14;67.63;101136.03;5595688;31;34203;-82
2022/01/07 10:32:27;;;;;;;;;;;;;;;-0.11;67.02;101130.72;5596062;31;36906;-82
2022/01/07 10:35:30;;;;;;;;;;;;;;;-0.15;65.33;101121.31;5595436;31;33827;-82
2022/01/07 10:38:33;;;;;;;;;;;;;;;-0.05;66.99;101117.50;5595318;31;33784;-82
2022/01/07 10:41:37;;;;;;;;;;;;;;;-0.04;66.22;101106.19;5595761;31;34481;-82
2022/01/07 10:44:57;;;;;;;;;;;;;;;0.08;65.47;101111.87;5595564;31;33471;-82
2022/01/07 10:48:08;;;;;;;;;;;;;;;0.10;65.85;101099.66;5597626;31;33799;-83
2022/01/07 10:51:15;;;;;;;;;;;;;;;0.14;65.48;101102.09;5595982;31;33976;-83
2022/01/07 10:54:19;;;;;;;;;;;;;;;0.09;64.48;101091.03;5596089;31;34427;-84
2022/01/07 10:57:34;;;;;;;;;;;;;;;0.20;66.02;101090.63;5596676;31;33486;-83
2022/01/07 11:00:38;;;;;;;;;;;;;;;0.20;64.30;101090.63;5596437;31;33556;-83
2022/01/07 11:03:48;;;;;;;;;;;;;;;0.35;63.85;101083.16;5596345;31;33830;-82
2022/01/07 11:06:57;;;;;;;;;;;;;;;0.40;64.08;101070.81;5596725;31;33300;-82
2022/01/07 11:10:00;;;;;;;;;;;;;;;0.39;63.44;101071.75;5595356;31;33755;-82
2022/01/07 11:13:06;;;;;;;;;;;;;;;0.49;63.89;101067.91;5595540;31;34350;-82
2022/01/07 11:16:08;;;;;;;;;;;;;;;0.63;62.22;101075.19;5596858;31;33908;-82
2022/01/07 11:19:12;;;;;;;;;;;;;;;0.58;62.68;101077.09;5596567;31;32345;-82
2022/01/07 11:22:17;;;;;;;;;;;;;;;0.54;62.63;101063.34;5595753;31;34563;-82
2022/01/07 11:25:29;;;;;;;;;;;;;;;0.52;61.60;101070.38;5595275;31;34201;-82
2022/01/07 11:28:32;;;;;;;;;;;;;;;0.57;62.85;101063.25;5595322;31;33790;-83
2022/01/07 11:31:39;;;;;;;;;;;;;;;0.66;61.83;101061.19;5594798;31;33725;-83
2022/01/07 11:34:44;;;;;;;;;;;;;;;0.61;61.19;101044.00;5594797;31;33678;-83
2022/01/07 11:37:56;;;;;;;;;;;;;;;0.60;59.95;101041.44;5595998;31;33832;-83
2022/01/07 11:40:59;;;;;;;;;;;;;;;0.69;60.70;101048.06;5594441;31;33437;-82
2022/01/07 11:44:11;;;;;;;;;;;;;;;0.71;60.13;101043.63;5594835;31;34448;-83
2022/01/07 11:47:17;;;;;;;;;;;;;;;0.68;59.37;101041.16;5594491;31;34026;-82
2022/01/07 11:50:19;;;;;;;;;;;;;;;0.58;60.61;101033.69;5594496;31;34025;-81
2022/01/07 11:53:23;;;;;;;;;;;;;;;0.73;60.73;101024.44;5594922;31;34420;-81
2022/01/07 11:56:25;;;;;;;;;;;;;;;0.75;60.62;101024.34;5596373;31;33921;-82
2022/01/07 11:59:29;;;;;;;;;;;;;;;0.70;59.86;101018.50;5596820;31;34949;-81
2022/01/07 12:02:52;;;;;;;;;;;;;;;0.68;60.62;101020.31;5596244;31;33857;-81
2022/01/07 12:05:54;;;;;;;;;;;;;;;0.69;59.52;101014.19;5596127;31;33659;-82
2022/01/07 12:09:04;;;;;;;;;;;;;;;0.64;60.29;101018.72;5594655;31;33659;-83
2022/01/07 12:12:10;;;;;;;;;;;;;;;0.72;61.09;101014.09;5594392;31;34285;-81
2022/01/07 12:15:13;;;;;;;;;;;;;;;0.82;61.11;101009.34;5594355;31;33614;-83
2022/01/07 12:18:16;;;;;;;;;;;;;;;0.88;60.65;101009.94;5594072;31;33836;-83
2022/01/07 12:21:19;;;;;;;;;;;;;;;0.82;59.59;101007.59;5593120;31;33913;-83
2022/01/07 12:24:26;;;;;;;;;;;;;;;0.84;58.39;101003.19;5593275;31;33949;-83
2022/01/07 12:27:29;;;;;;;;;;;;;;;0.83;57.26;101004.09;5595554;31;34252;-83
2022/01/07 12:30:32;;;;;;;;;;;;;;;0.88;59.02;100996.09;5596866;31;33220;-84
2022/01/07 12:33:35;;;;;;;;;;;;;;;0.86;58.81;100988.31;5596527;31;34347;-84
2022/01/07 12:36:38;;;;;;;;;;;;;;;0.88;58.34;100991.72;5598891;31;33984;-84
2022/01/07 12:39:43;;;;;;;;;;;;;;;0.87;58.22;100976.97;5597582;31;34895;-84
2022/01/07 12:42:53;;;;;;;;;;;;;;;0.83;57.60;100983.25;5597700;31;34494;-83
2022/01/07 12:46:00;;;;;;;;;;;;;;;0.70;58.00;100974.22;5597570;31;34696;-83
2022/01/07 12:49:03;;;;;;;;;;;;;;;0.73;57.48;100979.31;5595477;31;33687;-83
2022/01/07 12:52:07;;;;;;;;;;;;;;;0.69;55.64;100972.53;5595628;31;33734;-84
2022/01/07 12:55:15;;;;;;;;;;;;;;;0.72;56.05;100967.19;5596251;31;33855;-83
2022/01/07 12:58:26;;;;;;;;;;;;;;;0.81;58.24;100961.63;5596133;31;34796;-83
2022/01/07 13:01:31;;;;;;;;;;;;;;;0.66;57.40;100962.22;5597173;31;33914;-84
2022/01/07 13:04:34;;;;;;;;;;;;;;;0.60;58.32;100969.37;5595464;31;34640;-83
2022/01/07 13:07:39;;;;;;;;;;;;;;;0.55;58.56;100949.66;5597664;31;33894;-83
2022/01/07 13:10:51;;;;;;;;;;;;;;;0.51;57.86;100964.50;5595817;31;34106;-83
2022/01/07 13:14:04;;;;;;;;;;;;;;;0.55;59.05;100945.28;5595007;31;33884;-83
2022/01/07 13:17:10;;;;;;;;;;;;;;;0.55;57.42;100945.28;5596263;31;34511;-84
2022/01/07 13:20:28;;;;;;;;;;;;;;;0.61;58.50;100950.25;5583651;31;34467;-83
2022/01/07 13:23:37;;;;;;;;;;;;;;;0.52;58.17;100940.19;5596139;31;34253;-84
2022/01/07 13:26:44;;;;;;;;;;;;;;;0.53;59.98;100941.03;5596549;31;34018;-84
2022/01/07 13:29:47;;;;;;;;;;;;;;;0.47;60.14;100936.91;5596306;31;33843;-84
2022/01/07 13:33:04;;;;;;;;;;;;;;;0.43;61.53;100936.19;5596580;31;34188;-84
2022/01/07 13:36:42;;;;;;;;;;;;;;;0.36;60.39;100939.09;5597425;31;33833;-84
2022/01/07 13:39:49;;;;;;;;;;;;;;;0.33;59.58;100923.59;5595896;31;33452;-84
2022/01/07 13:43:05;;;;;;;;;;;;;;;0.33;59.69;100929.66;5597863;31;35838;-84
2022/01/07 13:46:09;;;;;;;;;;;;;;;0.32;61.61;100924.50;5584851;31;33902;-83
2022/01/07 13:49:15;;;;;;;;;;;;;;;0.34;58.87;100920.09;5595937;31;34679;-83
2022/01/07 13:52:26;;;;;;;;;;;;;;;0.30;57.73;100909.78;5595689;31;33781;-83
2022/01/07 13:55:33;;;;;;;;;;;;;;;0.30;59.53;100909.78;5595690;31;33794;-83
2022/01/07 13:58:38;;;;;;;;;;;;;;;0.26;59.15;100918.63;5596653;31;34156;-83
2022/01/07 14:01:56;;;;;;;;;;;;;;;0.21;59.95;100910.16;5597588;31;34705;-83
2022/01/07 14:05:01;;;;;;;;;;;;;;;0.14;60.03;100912.13;5597640;31;33921;-84
2022/01/07 14:08:09;;;;;;;;;;;;;;;0.13;58.06;100907.84;5596998;31;34435;-83
2022/01/07 14:11:16;;;;;;;;;;;;;;;0.12;58.70;100916.53;5597236;31;34059;-83
2022/01/07 14:14:21;;;;;;;;;;;;;;;0.10;59.31;100907.13;5597645;31;33456;-83
2022/01/07 14:17:49;;;;;;;;;;;;;;;0.06;58.66;100908.13;5596509;31;33576;-83
2022/01/07 14:21:00;;;;;;;;;;;;;;;-0.05;58.93;100901.59;5597631;31;33884;-83
2022/01/07 14:24:03;;;;;;;;;;;;;;;-0.14;60.09;100899.34;5596231;31;33803;-84
2022/01/07 14:27:07;;;;;;;;;;;;;;;-0.17;60.01;100899.47;5596074;31;33560;-83
2022/01/07 14:30:14;;;;;;;;;;;;;;;-0.26;60.08;100894.59;5595367;31;33496;-83
2022/01/07 14:33:26;;;;;;;;;;;;;;;-0.36;59.82;100900.12;5596930;31;33925;-83
2022/01/07 14:36:29;;;;;;;;;;;;;;;-0.36;60.33;100894.94;5597183;31;33755;-83
2022/01/07 14:39:32;;;;;;;;;;;;;;;-0.50;60.88;100898.03;5593323;31;34480;-83
2022/01/07 14:42:34;;;;;;;;;;;;;;;-0.59;61.86;100897.50;5595359;31;33834;-83
2022/01/07 14:45:37;;;;;;;;;;;;;;;-0.52;60.05;100899.00;5596764;31;34046;-83
2022/01/07 14:48:42;;;;;;;;;;;;;;;-0.65;60.36;100899.44;5595052;31;33859;-83
2022/01/07 14:51:45;;;;;;;;;;;;;;;-0.71;59.87;100889.25;5594979;31;34405;-83
2022/01/07 14:54:48;;;;;;;;;;;;;;;-0.77;60.95;100899.88;5592343;31;33862;-83
2022/01/07 14:57:50;;;;;;;;;;;;;;;-0.81;60.43;100893.06;5595290;31;33885;-83
2022/01/07 15:00:56;;;;;;;;;;;;;;;-0.79;60.08;100896.47;5594120;31;33592;-83
2022/01/07 15:04:00;;;;;;;;;;;;;;;-1.02;61.24;100897.28;5595033;31;34475;-83
2022/01/07 15:07:09;;;;;;;;;;;;;;;-1.00;60.79;100893.72;5593644;31;33720;-83
2022/01/07 15:10:12;;;;;;;;;;;;;;;-1.06;61.88;100898.28;5594478;31;33654;-84
2022/01/07 15:13:15;;;;;;;;;;;;;;;-0.95;62.14;100894.41;5594714;31;33516;-84
2022/01/07 15:16:36;;;;;;;;;;;;;;;-1.00;62.09;100898.91;5595054;31;33859;-83
2022/01/07 15:19:38;;;;;;;;;;;;;;;-1.27;63.59;100892.91;5597649;31;32137;-83
2022/01/07 15:22:41;;;;;;;;;;;;;;;-1.44;62.97;100898.66;5599725;31;33694;-83
2022/01/07 15:25:44;;;;;;;;;;;;;;;-1.56;63.65;100911.13;5593972;31;34750;-83
2022/01/07 15:28:47;;;;;;;;;;;;;;;-1.70;63.44;100908.09;5595131;31;33847;-83
2022/01/07 15:31:49;;;;;;;;;;;;;;;-1.70;64.46;100908.09;5611889;31;34078;-84
2022/01/07 15:34:57;;;;;;;;;;;;;;;-1.64;64.27;100910.53;5597071;31;33521;-84
2022/01/07 15:38:02;;;;;;;;;;;;;;;-1.72;65.62;100909.88;5594508;31;34335;-84
2022/01/07 15:41:06;;;;;;;;;;;;;;;-1.52;64.66;100905.84;5594158;31;34144;-83
2022/01/07 15:44:10;;;;;;;;;;;;;;;-1.46;64.08;100909.06;5594799;31;33247;-84
2022/01/07 15:47:13;;;;;;;;;;;;;;;-1.51;64.54;100903.19;5594300;31;33838;-83
2022/01/07 15:50:16;;;;;;;;;;;;;;;-1.47;63.89;100898.75;5593915;31;33767;-84
2022/01/07 15:53:18;;;;;;;;;;;;;;;-1.39;64.41;100904.53;5593787;31;33696;-84
2022/01/07 15:56:21;;;;;;;;;;;;;;;-1.47;64.80;100902.19;5596228;31;33222;-83
2022/01/07 15:59:24;;;;;;;;;;;;;;;-1.46;64.88;100906.47;5595307;31;33436;-84